Time;durP1;ratioP1;P1;durP2;ratioP2;P2;SDS_P1;SDS_P2;PMS_P1;PMS_P2;Temp;Humidity;BMP_temperature;BMP_pressure;BME280_temperature;BME280_humidity;BME280_pressure;Samples;Min_cycle;Max_cycle;Signal;HPM_P1;HPM_P2
2022/09/28 00:00:05;;;;;;;;;;;9.50;99.90;;;;;;5072350;28;20293;-74
2022/09/28 00:02:31;;;;;;;;;;;9.50;99.90;;;;;;5073194;28;19908;-73
2022/09/28 00:04:56;;;;;;;;;;;9.50;99.90;;;;;;5073570;28;19920;-74
2022/09/28 00:07:22;;;;;;;;;;;9.60;99.90;;;;;;5073512;28;20306;-74
2022/09/28 00:09:48;;;;;;;;;;;9.60;99.90;;;;;;5073049;28;19950;-73
2022/09/28 00:12:13;;;;;;;;;;;9.60;99.90;;;;;;5073539;28;19908;-74
2022/09/28 00:14:39;;;;;;;;;;;9.70;99.90;;;;;;5072804;28;19923;-74
2022/09/28 00:17:06;;;;;;;;;;;9.70;99.90;;;;;;5073527;28;19908;-74
2022/09/28 00:19:31;;;;;;;;;;;9.80;99.90;;;;;;5073301;28;19908;-75
2022/09/28 00:21:57;;;;;;;;;;;9.80;99.90;;;;;;5072822;28;19908;-74
2022/09/28 00:24:22;;;;;;;;;;;9.80;99.90;;;;;;5071930;28;19999;-74
2022/09/28 00:26:53;;;;;;;;;;;9.90;99.90;;;;;;5072762;28;19924;-74
2022/09/28 00:29:20;;;;;;;;;;;9.90;99.90;;;;;;5073100;28;20432;-74
2022/09/28 00:31:46;;;;;;;;;;;9.90;99.90;;;;;;5072768;28;20268;-74
2022/09/28 00:34:12;;;;;;;;;;;10.00;99.90;;;;;;5073215;28;19916;-74
2022/09/28 00:36:37;;;;;;;;;;;9.90;99.90;;;;;;5072521;28;19909;-74
2022/09/28 00:39:07;;;;;;;;;;;10.00;99.90;;;;;;5072877;28;19908;-75
2022/09/28 00:41:33;;;;;;;;;;;9.90;99.90;;;;;;5072498;28;20001;-75
2022/09/28 00:44:17;;;;;;;;;;;9.90;99.90;;;;;;5072945;28;19927;-75
2022/09/28 00:46:42;;;;;;;;;;;9.80;99.90;;;;;;5071287;28;19982;-75
2022/09/28 00:49:12;;;;;;;;;;;9.80;99.90;;;;;;5072946;28;19940;-75
2022/09/28 00:51:38;;;;;;;;;;;9.70;99.90;;;;;;5071719;28;19920;-74
2022/09/28 00:54:04;;;;;;;;;;;9.60;99.90;;;;;;5072922;28;19950;-74
2022/09/28 00:56:31;;;;;;;;;;;9.60;99.90;;;;;;5073380;28;19908;-74
2022/09/28 00:58:58;;;;;;;;;;;9.60;99.90;;;;;;5072524;28;19931;-74
2022/09/28 01:01:24;;;;;;;;;;;9.60;99.90;;;;;;5072933;28;19912;-75
2022/09/28 01:03:50;;;;;;;;;;;9.60;99.90;;;;;;5072318;28;19912;-74
2022/09/28 01:06:19;;;;;;;;;;;9.50;99.90;;;;;;5072832;28;20011;-74
2022/09/28 01:08:45;;;;;;;;;;;9.40;99.90;;;;;;5070908;28;19917;-74
2022/09/28 01:11:11;;;;;;;;;;;9.40;99.90;;;;;;5072982;28;19952;-75
2022/09/28 01:13:36;;;;;;;;;;;9.40;99.90;;;;;;5072443;28;19978;-74
2022/09/28 01:16:20;;;;;;;;;;;9.40;99.90;;;;;;5072701;28;19915;-74
2022/09/28 01:18:53;;;;;;;;;;;9.50;99.90;;;;;;5072218;28;19974;-74
2022/09/28 01:21:20;;;;;;;;;;;9.50;99.90;;;;;;5072573;28;19912;-75
2022/09/28 01:23:45;;;;;;;;;;;9.50;99.90;;;;;;5071840;28;20281;-74
2022/09/28 01:26:29;;;;;;;;;;;9.50;99.90;;;;;;5072758;28;19913;-74
2022/09/28 01:28:59;;;;;;;;;;;9.60;99.90;;;;;;5072164;28;19919;-74
2022/09/28 01:31:29;;;;;;;;;;;9.60;99.90;;;;;;5072543;28;19908;-75
2022/09/28 01:33:58;;;;;;;;;;;9.60;99.90;;;;;;5072082;28;19917;-75
2022/09/28 01:36:26;;;;;;;;;;;9.60;99.90;;;;;;5072668;28;19913;-75
2022/09/28 01:38:54;;;;;;;;;;;9.60;99.90;;;;;;5071637;28;20392;-74
2022/09/28 01:41:21;;;;;;;;;;;9.60;99.90;;;;;;5072584;28;20387;-73
2022/09/28 01:44:07;;;;;;;;;;;9.70;99.90;;;;;;5071970;28;19918;-75
2022/09/28 01:46:43;;;;;;;;;;;9.70;99.90;;;;;;5072329;28;19919;-74
2022/09/28 01:49:35;;;;;;;;;;;9.70;99.90;;;;;;5072267;28;19920;-74
2022/09/28 01:52:23;;;;;;;;;;;9.70;99.90;;;;;;5069614;28;19966;-74
2022/09/28 01:55:21;;;;;;;;;;;9.60;99.90;;;;;;5071641;28;19940;-74
2022/09/28 01:58:10;;;;;;;;;;;9.70;99.90;;;;;;5048522;28;19909;-74
2022/09/28 02:00:40;;;;;;;;;;;9.60;99.90;;;;;;5066382;28;19966;-74
2022/09/28 02:03:09;;;;;;;;;;;9.60;99.90;;;;;;5075131;28;19917;-74
2022/09/28 02:05:37;;;;;;;;;;;9.60;99.90;;;;;;5076013;28;20007;-74
2022/09/28 02:08:07;;;;;;;;;;;9.50;99.90;;;;;;5075273;28;19915;-73
2022/09/28 02:10:37;;;;;;;;;;;9.50;99.90;;;;;;5075762;28;20428;-74
2022/09/28 02:13:22;;;;;;;;;;;9.40;99.90;;;;;;5075142;28;19908;-74
2022/09/28 02:15:47;;;;;;;;;;;9.50;99.90;;;;;;5075164;28;19908;-75
2022/09/28 02:18:13;;;;;;;;;;;9.40;99.90;;;;;;5075653;28;19954;-74
2022/09/28 02:20:41;;;;;;;;;;;9.40;99.90;;;;;;5075588;28;19908;-75
2022/09/28 02:23:07;;;;;;;;;;;9.40;99.90;;;;;;5075518;28;20003;-74
2022/09/28 02:25:38;;;;;;;;;;;9.40;99.90;;;;;;5075198;28;19912;-74
2022/09/28 02:28:05;;;;;;;;;;;9.30;99.90;;;;;;5074969;28;19912;-74
2022/09/28 02:30:32;;;;;;;;;;;9.30;99.90;;;;;;5075945;28;19915;-74
2022/09/28 02:33:16;;;;;;;;;;;9.30;99.90;;;;;;5074955;28;19993;-74
2022/09/28 02:35:42;;;;;;;;;;;9.30;99.90;;;;;;5075417;28;19908;-74
2022/09/28 02:38:11;;;;;;;;;;;9.30;99.90;;;;;;5075233;28;19909;-74
2022/09/28 02:40:37;;;;;;;;;;;9.30;99.90;;;;;;5075470;28;19908;-74
2022/09/28 02:43:15;;;;;;;;;;;9.40;99.90;;;;;;5073179;28;19908;-74
2022/09/28 02:45:43;;;;;;;;;;;9.40;99.90;;;;;;5074909;28;19919;-74
2022/09/28 02:48:27;;;;;;;;;;;9.30;99.90;;;;;;5075477;28;19908;-74
2022/09/28 02:51:07;;;;;;;;;;;9.40;99.90;;;;;;5074223;28;19920;-74
2022/09/28 02:53:40;;;;;;;;;;;9.40;99.90;;;;;;5073790;28;19912;-75
2022/09/28 02:56:06;;;;;;;;;;;9.40;99.90;;;;;;5074660;28;19915;-75
2022/09/28 02:59:01;;;;;;;;;;;9.40;99.90;;;;;;5075072;28;20354;-75
2022/09/28 03:01:45;;;;;;;;;;;9.40;99.90;;;;;;5037616;28;19909;-75
2022/09/28 03:04:35;;;;;;;;;;;9.40;99.90;;;;;;5073557;28;19912;-75
2022/09/28 03:07:10;;;;;;;;;;;9.30;99.90;;;;;;5074256;28;19916;-75
2022/09/28 03:09:59;;;;;;;;;;;9.40;99.90;;;;;;5074529;28;19916;-75
2022/09/28 03:12:25;;;;;;;;;;;9.40;99.90;;;;;;5054267;28;19912;-75
2022/09/28 03:15:11;;;;;;;;;;;9.30;99.90;;;;;;5072195;28;19915;-75
2022/09/28 03:17:37;;;;;;;;;;;9.40;99.90;;;;;;5073255;28;19908;-75
2022/09/28 03:20:03;;;;;;;;;;;9.30;99.90;;;;;;5073701;28;19915;-74
2022/09/28 03:22:28;;;;;;;;;;;9.30;99.90;;;;;;5074553;28;20384;-75
2022/09/28 03:24:54;;;;;;;;;;;9.30;99.90;;;;;;5073750;28;19916;-73
2022/09/28 03:27:19;;;;;;;;;;;9.20;99.90;;;;;;5074511;28;19908;-74
2022/09/28 03:29:45;;;;;;;;;;;9.20;99.90;;;;;;5072899;28;19908;-74
2022/09/28 03:32:10;;;;;;;;;;;9.20;99.90;;;;;;5074433;28;19909;-74
2022/09/28 03:34:36;;;;;;;;;;;9.10;99.90;;;;;;5074684;28;19916;-74
2022/09/28 03:37:01;;;;;;;;;;;9.10;99.90;;;;;;5073475;28;19991;-75
2022/09/28 03:39:27;;;;;;;;;;;9.10;99.90;;;;;;5074666;28;19908;-74
2022/09/28 03:41:52;;;;;;;;;;;9.20;99.90;;;;;;5073537;28;20377;-74
2022/09/28 03:44:18;;;;;;;;;;;9.20;99.90;;;;;;5072760;28;19913;-74
2022/09/28 03:46:45;;;;;;;;;;;9.20;99.90;;;;;;5072614;28;19917;-74
2022/09/28 03:49:10;;;;;;;;;;;9.20;99.90;;;;;;5073294;28;19916;-74
2022/09/28 03:51:36;;;;;;;;;;;9.30;99.90;;;;;;5073499;28;19920;-74
2022/09/28 03:54:01;;;;;;;;;;;9.30;99.90;;;;;;5071767;28;20267;-73
2022/09/28 03:56:27;;;;;;;;;;;9.30;99.90;;;;;;5073855;28;19909;-73
2022/09/28 03:58:52;;;;;;;;;;;9.30;99.90;;;;;;5073266;28;19908;-74
2022/09/28 04:01:18;;;;;;;;;;;9.30;99.90;;;;;;5073718;28;19954;-74
2022/09/28 04:03:44;;;;;;;;;;;9.30;99.90;;;;;;5073751;28;19916;-74
2022/09/28 04:06:10;;;;;;;;;;;9.30;99.90;;;;;;5073278;28;20280;-73
2022/09/28 04:08:35;;;;;;;;;;;9.30;99.90;;;;;;5073530;28;20423;-74
2022/09/28 04:11:01;;;;;;;;;;;9.40;99.90;;;;;;5073127;28;20346;-74
2022/09/28 04:13:27;;;;;;;;;;;9.40;99.90;;;;;;5073114;28;19916;-73
2022/09/28 04:15:56;;;;;;;;;;;9.40;99.90;;;;;;5073042;28;20253;-74
2022/09/28 04:18:22;;;;;;;;;;;9.50;99.90;;;;;;5073312;28;19912;-73
2022/09/28 04:20:56;;;;;;;;;;;9.50;99.90;;;;;;5073532;28;19916;-73
2022/09/28 04:23:21;;;;;;;;;;;9.50;99.90;;;;;;5073140;28;19912;-74
2022/09/28 04:25:50;;;;;;;;;;;9.50;99.90;;;;;;5072300;28;19999;-74
2022/09/28 04:31:00;;;;;;;;;;;9.60;99.90;;;;;;5072581;28;19932;-74
2022/09/28 04:33:25;;;;;;;;;;;9.50;99.90;;;;;;5073132;28;20361;-74
2022/09/28 04:35:51;;;;;;;;;;;9.50;99.90;;;;;;5073039;28;20366;-74
2022/09/28 04:38:17;;;;;;;;;;;9.60;99.90;;;;;;5073238;28;20269;-75
2022/09/28 04:40:42;;;;;;;;;;;9.50;99.90;;;;;;5072890;28;19955;-74
2022/09/28 04:43:08;;;;;;;;;;;9.50;99.90;;;;;;5072389;28;19920;-74
2022/09/28 04:45:33;;;;;;;;;;;9.50;99.90;;;;;;5072871;28;19916;-74
2022/09/28 04:47:59;;;;;;;;;;;9.60;99.90;;;;;;5072686;28;19908;-74
2022/09/28 04:50:24;;;;;;;;;;;9.50;99.90;;;;;;5072815;28;19921;-74
2022/09/28 04:52:50;;;;;;;;;;;9.60;99.90;;;;;;5072757;28;19980;-75
2022/09/28 04:55:15;;;;;;;;;;;9.50;99.90;;;;;;5072980;28;19908;-75
2022/09/28 04:57:41;;;;;;;;;;;9.60;99.90;;;;;;5073021;28;20269;-75
2022/09/28 05:00:07;;;;;;;;;;;9.50;99.90;;;;;;5072187;28;19909;-73
2022/09/28 05:02:33;;;;;;;;;;;9.50;99.90;;;;;;5072888;28;19919;-74
2022/09/28 05:04:59;;;;;;;;;;;9.50;99.90;;;;;;5072242;28;19913;-74
2022/09/28 05:07:25;;;;;;;;;;;9.50;99.90;;;;;;5072887;28;19912;-74
2022/09/28 05:09:51;;;;;;;;;;;9.50;99.90;;;;;;5072814;28;19912;-74
2022/09/28 05:12:17;;;;;;;;;;;9.40;99.90;;;;;;5072709;28;19908;-74
2022/09/28 05:14:43;;;;;;;;;;;9.40;99.90;;;;;;5071392;28;19909;-75
2022/09/28 05:17:08;;;;;;;;;;;9.40;99.90;;;;;;5072309;28;19909;-74
2022/09/28 05:19:34;;;;;;;;;;;9.30;99.90;;;;;;5072377;28;19912;-74
2022/09/28 05:22:04;;;;;;;;;;;9.30;99.90;;;;;;5072248;28;19908;-74
2022/09/28 05:24:30;;;;;;;;;;;9.30;99.90;;;;;;5072595;28;19912;-74
2022/09/28 05:26:56;;;;;;;;;;;9.30;99.90;;;;;;5071955;28;20430;-74
2022/09/28 05:29:21;;;;;;;;;;;9.30;99.90;;;;;;5104883;28;19909;-74
2022/09/28 05:31:47;;;;;;;;;;;9.20;99.90;;;;;;5072607;28;19909;-75
2022/09/28 05:34:12;;;;;;;;;;;9.20;99.90;;;;;;5072378;28;20561;-74
2022/09/28 05:36:39;;;;;;;;;;;9.20;99.90;;;;;;5073286;28;20358;-74
2022/09/28 05:39:05;;;;;;;;;;;9.10;99.90;;;;;;5075616;28;20349;-75
2022/09/28 05:41:31;;;;;;;;;;;9.10;99.90;;;;;;5076444;28;19908;-74
2022/09/28 05:43:57;;;;;;;;;;;9.20;99.90;;;;;;5075650;28;19912;-74
2022/09/28 05:46:22;;;;;;;;;;;9.20;99.90;;;;;;5076218;28;19912;-74
2022/09/28 05:48:48;;;;;;;;;;;9.20;99.90;;;;;;5076113;28;19961;-74
2022/09/28 05:51:14;;;;;;;;;;;9.20;99.90;;;;;;5075307;28;19924;-74
2022/09/28 05:53:39;;;;;;;;;;;9.20;99.90;;;;;;5076047;28;19908;-74
2022/09/28 05:56:05;;;;;;;;;;;9.20;99.90;;;;;;5075525;28;20355;-74
2022/09/28 05:58:31;;;;;;;;;;;9.20;99.90;;;;;;5076475;28;19909;-75
2022/09/28 06:00:57;;;;;;;;;;;9.20;99.90;;;;;;5075637;28;19916;-73
2022/09/28 06:03:23;;;;;;;;;;;9.10;99.90;;;;;;5075770;28;20058;-74
2022/09/28 06:05:49;;;;;;;;;;;9.10;99.90;;;;;;5075563;28;19977;-74
2022/09/28 06:08:14;;;;;;;;;;;9.00;99.90;;;;;;5075259;28;20107;-74
2022/09/28 06:10:40;;;;;;;;;;;8.90;99.90;;;;;;5075914;28;19915;-74
2022/09/28 06:13:06;;;;;;;;;;;8.90;99.90;;;;;;5074968;28;19912;-73
2022/09/28 06:15:32;;;;;;;;;;;8.90;99.90;;;;;;5075548;28;20346;-74
2022/09/28 06:17:59;;;;;;;;;;;8.90;99.90;;;;;;5075265;28;19991;-73
2022/09/28 06:20:28;;;;;;;;;;;8.90;99.90;;;;;;5074848;28;19916;-74
2022/09/28 06:22:54;;;;;;;;;;;8.80;99.90;;;;;;5075420;28;19981;-74
2022/09/28 06:25:21;;;;;;;;;;;8.90;99.90;;;;;;5075374;28;19916;-74
2022/09/28 06:28:00;;;;;;;;;;;8.80;99.90;;;;;;5073881;28;19908;-74
2022/09/28 06:30:27;;;;;;;;;;;8.80;99.90;;;;;;5075298;28;19930;-74
2022/09/28 06:32:53;;;;;;;;;;;8.80;99.90;;;;;;5075306;28;19931;-74
2022/09/28 06:35:20;;;;;;;;;;;8.80;99.90;;;;;;5074618;28;20028;-74
2022/09/28 06:37:46;;;;;;;;;;;8.80;99.90;;;;;;5075335;28;19908;-74
2022/09/28 06:40:11;;;;;;;;;;;8.80;99.90;;;;;;5074385;28;20385;-74
2022/09/28 06:42:37;;;;;;;;;;;8.80;99.90;;;;;;5075314;28;19916;-74
2022/09/28 06:45:03;;;;;;;;;;;8.70;99.90;;;;;;5074301;28;19970;-74
2022/09/28 06:47:30;;;;;;;;;;;8.80;99.90;;;;;;5075051;28;19908;-74
2022/09/28 06:49:56;;;;;;;;;;;8.90;99.90;;;;;;5073832;28;19909;-74
2022/09/28 06:52:22;;;;;;;;;;;8.90;99.90;;;;;;5074487;28;19974;-74
2022/09/28 06:54:47;;;;;;;;;;;9.00;99.90;;;;;;5075122;28;19915;-75
2022/09/28 06:57:13;;;;;;;;;;;9.00;99.90;;;;;;5074419;28;20430;-74
2022/09/28 06:59:38;;;;;;;;;;;9.00;99.90;;;;;;5075215;28;19943;-75
2022/09/28 07:02:04;;;;;;;;;;;9.10;99.90;;;;;;5074050;28;19964;-74
2022/09/28 07:04:30;;;;;;;;;;;9.20;99.90;;;;;;5074871;28;19916;-74
2022/09/28 07:06:56;;;;;;;;;;;9.30;99.90;;;;;;5074538;28;19912;-73
2022/09/28 07:09:21;;;;;;;;;;;9.50;99.90;;;;;;5074371;28;19918;-75
2022/09/28 07:11:47;;;;;;;;;;;9.60;99.90;;;;;;5074423;28;19909;-74
2022/09/28 07:14:13;;;;;;;;;;;9.60;99.90;;;;;;5074004;28;19916;-74
2022/09/28 07:16:38;;;;;;;;;;;9.60;99.90;;;;;;5074587;28;19954;-74
2022/09/28 07:19:05;;;;;;;;;;;9.70;99.90;;;;;;5074036;28;19995;-74
2022/09/28 07:21:30;;;;;;;;;;;9.80;99.90;;;;;;5074223;28;19916;-73
2022/09/28 07:23:56;;;;;;;;;;;9.80;99.90;;;;;;5074578;28;19916;-74
2022/09/28 07:26:21;;;;;;;;;;;9.80;99.90;;;;;;5073777;28;19915;-75
2022/09/28 07:28:47;;;;;;;;;;;9.80;99.90;;;;;;5074238;28;19932;-74
2022/09/28 07:31:13;;;;;;;;;;;9.80;99.90;;;;;;5074106;28;19958;-74
2022/09/28 07:33:38;;;;;;;;;;;9.70;99.90;;;;;;5072867;28;20003;-74
2022/09/28 07:36:06;;;;;;;;;;;9.70;99.90;;;;;;5073471;28;19966;-74
2022/09/28 07:38:32;;;;;;;;;;;9.70;99.90;;;;;;5074089;28;20247;-74
2022/09/28 07:41:13;;;;;;;;;;;9.70;99.90;;;;;;5074222;28;19908;-74
2022/09/28 07:43:40;;;;;;;;;;;9.70;99.90;;;;;;5073973;28;20023;-74
2022/09/28 07:46:10;;;;;;;;;;;9.80;99.90;;;;;;5073143;28;20373;-74
2022/09/28 07:48:45;;;;;;;;;;;9.80;99.90;;;;;;5073992;28;20003;-74
2022/09/28 07:51:10;;;;;;;;;;;9.90;99.90;;;;;;5072731;28;19990;-74
2022/09/28 07:53:37;;;;;;;;;;;10.20;99.90;;;;;;5073896;28;20333;-73
2022/09/28 07:56:07;;;;;;;;;;;10.40;99.90;;;;;;5073777;28;19912;-74
2022/09/28 07:58:34;;;;;;;;;;;10.60;99.90;;;;;;5074234;28;20011;-73
2022/09/28 08:01:09;;;;;;;;;;;10.80;99.90;;;;;;5073496;28;19914;-74
2022/09/28 08:03:35;;;;;;;;;;;11.00;99.90;;;;;;5073490;28;20288;-75
2022/09/28 08:06:02;;;;;;;;;;;11.30;99.90;;;;;;5073148;28;19919;-74
2022/09/28 08:08:28;;;;;;;;;;;11.40;99.90;;;;;;5072865;28;19908;-74
2022/09/28 08:10:55;;;;;;;;;;;11.50;99.90;;;;;;5073258;28;19995;-75
2022/09/28 08:13:24;;;;;;;;;;;11.50;99.90;;;;;;5072915;28;20268;-74
2022/09/28 08:15:50;;;;;;;;;;;11.40;99.90;;;;;;5073618;28;20059;-74
2022/09/28 08:18:16;;;;;;;;;;;11.40;99.90;;;;;;5072622;28;19915;-74
2022/09/28 08:23:26;;;;;;;;;;;11.40;99.90;;;;;;5073126;28;20058;-74
2022/09/28 08:25:52;;;;;;;;;;;11.40;99.90;;;;;;5072467;28;19998;-74
2022/09/28 08:28:18;;;;;;;;;;;11.30;99.90;;;;;;5072752;28;19909;-73
2022/09/28 08:30:45;;;;;;;;;;;11.30;99.90;;;;;;5073187;28;20290;-73
2022/09/28 08:33:11;;;;;;;;;;;11.30;99.90;;;;;;5072085;28;20265;-74
2022/09/28 08:35:37;;;;;;;;;;;11.30;99.90;;;;;;5073097;28;19908;-75
2022/09/28 08:38:03;;;;;;;;;;;11.40;99.90;;;;;;5073040;28;19915;-75
2022/09/28 08:40:33;;;;;;;;;;;11.30;99.90;;;;;;5072379;28;20346;-74
2022/09/28 08:43:01;;;;;;;;;;;11.40;99.90;;;;;;5072721;28;19916;-74
2022/09/28 08:45:28;;;;;;;;;;;11.40;99.90;;;;;;5072288;28;19916;-74
2022/09/28 08:51:01;;;;;;;;;;;11.50;99.90;;;;;;5071776;28;19927;-74
2022/09/28 08:53:33;;;;;;;;;;;11.50;99.90;;;;;;5072137;28;20740;-76
2022/09/28 08:56:02;;;;;;;;;;;11.50;99.90;;;;;;5072931;28;19969;-74
2022/09/28 08:58:30;;;;;;;;;;;11.50;99.90;;;;;;5072346;28;19908;-74
2022/09/28 09:00:57;;;;;;;;;;;11.60;99.90;;;;;;5072562;28;20326;-75
2022/09/28 09:03:30;;;;;;;;;;;11.70;99.90;;;;;;5072151;28;19958;-75
2022/09/28 09:06:02;;;;;;;;;;;11.80;99.90;;;;;;5072788;28;19951;-75
2022/09/28 09:08:38;;;;;;;;;;;12.00;99.90;;;;;;5072144;28;20687;-75
2022/09/28 09:11:13;;;;;;;;;;;12.10;99.90;;;;;;5073412;28;20434;-75
2022/09/28 09:13:46;;;;;;;;;;;12.30;99.90;;;;;;5079508;28;19909;-75
2022/09/28 09:16:30;;;;;;;;;;;12.30;99.90;;;;;;5078967;28;19954;-74
2022/09/28 09:18:56;;;;;;;;;;;12.30;99.90;;;;;;5079126;28;19908;-76
2022/09/28 09:21:37;;;;;;;;;;;12.30;99.90;;;;;;5078617;28;20373;-75
2022/09/28 09:24:24;;;;;;;;;;;12.30;99.90;;;;;;5078832;28;19913;-75
2022/09/28 09:26:55;;;;;;;;;;;12.30;99.90;;;;;;5079252;28;19912;-74
2022/09/28 09:29:43;;;;;;;;;;;12.50;99.90;;;;;;5078445;28;19975;-75
2022/09/28 09:32:18;;;;;;;;;;;12.60;99.90;;;;;;5079220;28;20269;-75
2022/09/28 09:34:56;;;;;;;;;;;12.70;99.90;;;;;;5079080;28;20279;-74
2022/09/28 09:37:33;;;;;;;;;;;12.80;99.90;;;;;;5078403;28;19955;-75
2022/09/28 09:40:17;;;;;;;;;;;12.80;99.90;;;;;;5078625;28;19908;-75
2022/09/28 09:43:01;;;;;;;;;;;13.00;99.90;;;;;;5078348;28;20362;-75
2022/09/28 09:45:37;;;;;;;;;;;13.00;99.90;;;;;;5078621;28;19912;-75
2022/09/28 09:48:07;;;;;;;;;;;12.90;99.90;;;;;;5079191;28;19917;-75
2022/09/28 09:50:37;;;;;;;;;;;12.90;99.90;;;;;;5077818;28;20556;-75
2022/09/28 09:53:28;;;;;;;;;;;12.90;99.90;;;;;;5079137;28;19912;-76
2022/09/28 09:55:57;;;;;;;;;;;12.80;99.90;;;;;;5076167;28;20292;-76
2022/09/28 09:58:26;;;;;;;;;;;12.80;99.90;;;;;;5077523;28;19909;-76
2022/09/28 10:00:54;;;;;;;;;;;12.80;99.90;;;;;;5078656;28;19909;-76
2022/09/28 10:03:23;;;;;;;;;;;12.80;99.90;;;;;;5077712;28;19920;-75
2022/09/28 10:05:53;;;;;;;;;;;13.00;99.90;;;;;;5078437;28;19916;-76
2022/09/28 10:08:19;;;;;;;;;;;12.90;99.90;;;;;;5078045;28;19909;-75
2022/09/28 10:11:01;;;;;;;;;;;13.00;99.90;;;;;;5078069;28;19912;-75
2022/09/28 10:13:28;;;;;;;;;;;13.10;99.90;;;;;;5077757;28;19988;-75
2022/09/28 10:15:54;;;;;;;;;;;13.20;99.90;;;;;;5078289;28;19916;-75
2022/09/28 10:18:20;;;;;;;;;;;13.10;99.90;;;;;;5077785;28;19915;-75
2022/09/28 10:20:46;;;;;;;;;;;13.20;99.90;;;;;;5076947;28;19908;-76
2022/09/28 10:23:19;;;;;;;;;;;13.20;99.90;;;;;;5075438;28;20281;-76
2022/09/28 10:25:45;;;;;;;;;;;13.20;99.90;;;;;;5074726;28;19920;-76
2022/09/28 10:28:15;;;;;;;;;;;13.30;99.90;;;;;;5075085;28;19954;-75
2022/09/28 10:30:42;;;;;;;;;;;13.30;99.90;;;;;;5074971;28;19991;-74
2022/09/28 10:33:30;;;;;;;;;;;13.30;99.90;;;;;;5074939;28;19923;-76
2022/09/28 10:35:57;;;;;;;;;;;13.30;99.90;;;;;;5074523;28;19908;-75
2022/09/28 10:38:23;;;;;;;;;;;13.40;99.90;;;;;;5074558;28;19944;-76
2022/09/28 10:41:12;;;;;;;;;;;13.60;99.90;;;;;;5074502;28;19915;-76
2022/09/28 10:43:48;;;;;;;;;;;13.60;99.90;;;;;;5067168;28;19913;-76
2022/09/28 10:46:19;;;;;;;;;;;13.70;99.90;;;;;;5074536;28;19912;-74
2022/09/28 10:48:48;;;;;;;;;;;13.70;99.90;;;;;;5074686;28;19912;-75
2022/09/28 10:51:14;;;;;;;;;;;13.80;99.90;;;;;;5074521;28;19959;-75
2022/09/28 10:53:40;;;;;;;;;;;13.90;99.90;;;;;;5075243;28;19912;-76
2022/09/28 10:56:17;;;;;;;;;;;13.80;99.90;;;;;;5074963;28;20445;-76
2022/09/28 10:58:43;;;;;;;;;;;13.70;99.90;;;;;;5075062;28;19908;-76
2022/09/28 11:01:10;;;;;;;;;;;13.60;99.90;;;;;;5074898;28;19916;-76
2022/09/28 11:03:46;;;;;;;;;;;13.50;99.90;;;;;;5074247;28;20280;-75
2022/09/28 11:06:11;;;;;;;;;;;13.50;99.90;;;;;;5074948;28;19919;-75
2022/09/28 11:08:38;;;;;;;;;;;13.50;99.90;;;;;;5074066;28;20293;-75
2022/09/28 11:11:07;;;;;;;;;;;13.40;99.90;;;;;;5074235;28;19908;-75
2022/09/28 11:13:49;;;;;;;;;;;13.40;99.90;;;;;;5073239;28;19995;-76
2022/09/28 11:16:19;;;;;;;;;;;13.50;99.90;;;;;;5074490;28;19958;-75
2022/09/28 11:18:45;;;;;;;;;;;13.60;99.90;;;;;;5074802;28;20035;-75
2022/09/28 11:21:16;;;;;;;;;;;13.60;99.90;;;;;;5074385;28;20024;-75
2022/09/28 11:23:53;;;;;;;;;;;13.70;99.90;;;;;;5074624;28;19912;-75
2022/09/28 11:26:19;;;;;;;;;;;13.70;99.90;;;;;;5073843;28;19920;-75
2022/09/28 11:28:49;;;;;;;;;;;13.70;99.90;;;;;;5074391;28;19912;-75
2022/09/28 11:31:14;;;;;;;;;;;13.70;99.90;;;;;;5074376;28;19999;-75
2022/09/28 11:33:43;;;;;;;;;;;13.70;99.90;;;;;;5073557;28;19948;-75
2022/09/28 11:36:10;;;;;;;;;;;13.70;99.90;;;;;;5073501;28;20266;-76
2022/09/28 11:38:46;;;;;;;;;;;13.70;99.90;;;;;;5073537;28;19919;-75
2022/09/28 11:41:31;;;;;;;;;;;13.70;99.90;;;;;;5074273;28;19975;-75
2022/09/28 11:44:14;;;;;;;;;;;13.60;99.90;;;;;;5073787;28;20030;-75
2022/09/28 11:46:47;;;;;;;;;;;13.60;99.90;;;;;;5073351;28;19913;-75
2022/09/28 11:49:24;;;;;;;;;;;13.70;99.90;;;;;;5073913;28;19962;-76
2022/09/28 11:51:51;;;;;;;;;;;13.80;99.90;;;;;;5073184;28;19921;-75
2022/09/28 11:54:27;;;;;;;;;;;13.90;99.90;;;;;;5073223;28;20281;-74
2022/09/28 11:56:54;;;;;;;;;;;14.00;99.90;;;;;;5074118;28;20393;-76
2022/09/28 11:59:23;;;;;;;;;;;14.10;99.90;;;;;;5073208;28;20001;-75
2022/09/28 12:01:50;;;;;;;;;;;14.10;99.90;;;;;;5073931;28;19943;-76
2022/09/28 12:04:35;;;;;;;;;;;14.20;99.90;;;;;;5073694;28;19913;-77
2022/09/28 12:07:10;;;;;;;;;;;14.20;99.90;;;;;;5073268;28;19919;-76
2022/09/28 12:09:40;;;;;;;;;;;14.20;99.90;;;;;;5073130;28;19915;-76
2022/09/28 12:12:14;;;;;;;;;;;14.20;99.90;;;;;;5073533;28;19909;-77
2022/09/28 12:14:40;;;;;;;;;;;14.20;99.90;;;;;;5073020;28;19987;-76
2022/09/28 12:17:18;;;;;;;;;;;14.10;99.90;;;;;;5073141;28;20377;-75
2022/09/28 12:19:46;;;;;;;;;;;14.20;99.90;;;;;;5072959;28;19908;-76
2022/09/28 12:22:30;;;;;;;;;;;14.20;99.90;;;;;;5073210;28;20392;-76
2022/09/28 12:24:56;;;;;;;;;;;14.20;99.90;;;;;;5073223;28;19912;-76
2022/09/28 12:27:28;;;;;;;;;;;14.10;99.90;;;;;;5072790;28;19919;-75
2022/09/28 12:30:03;;;;;;;;;;;14.20;99.90;;;;;;5073157;28;19969;-76
2022/09/28 12:32:34;;;;;;;;;;;14.20;99.90;;;;;;5072572;28;19915;-75
2022/09/28 12:35:00;;;;;;;;;;;14.10;99.90;;;;;;5073622;28;19912;-76
2022/09/28 12:37:29;;;;;;;;;;;14.00;99.90;;;;;;5072573;28;19909;-75
2022/09/28 12:39:58;;;;;;;;;;;13.90;99.90;;;;;;5071580;28;20285;-77
2022/09/28 12:42:27;;;;;;;;;;;13.60;99.90;;;;;;5072388;28;19935;-74
2022/09/28 12:44:54;;;;;;;;;;;13.40;99.90;;;;;;5072739;28;20358;-76
2022/09/28 12:47:20;;;;;;;;;;;13.10;99.90;;;;;;5071849;28;19919;-80
2022/09/28 12:50:04;;;;;;;;;;;12.70;99.90;;;;;;5072187;28;19912;-80
2022/09/28 12:52:37;;;;;;;;;;;12.30;99.90;;;;;;5070613;28;20338;-79
2022/09/28 12:55:14;;;;;;;;;;;12.00;99.90;;;;;;5071732;28;19932;-80
2022/09/28 12:57:46;;;;;;;;;;;11.70;99.90;;;;;;5070619;28;19909;-80
2022/09/28 13:00:17;;;;;;;;;;;11.50;99.90;;;;;;5071607;28;19909;-82
2022/09/28 13:02:58;;;;;;;;;;;11.40;99.90;;;;;;5071044;28;19905;-79
2022/09/28 13:05:27;;;;;;;;;;;11.30;99.90;;;;;;5071109;28;19923;-78
2022/09/28 13:07:55;;;;;;;;;;;11.40;99.90;;;;;;5072513;28;19908;-78
2022/09/28 13:10:41;;;;;;;;;;;11.40;99.90;;;;;;5071479;28;20004;-76
2022/09/28 13:13:24;;;;;;;;;;;11.40;99.90;;;;;;5071445;28;20365;-76
2022/09/28 13:16:08;;;;;;;;;;;11.40;99.90;;;;;;5072817;28;19908;-76
2022/09/28 13:18:49;;;;;;;;;;;11.60;99.90;;;;;;5072236;28;19947;-75
2022/09/28 13:21:25;;;;;;;;;;;11.60;99.90;;;;;;5072532;28;19919;-75
2022/09/28 13:23:52;;;;;;;;;;;11.60;99.90;;;;;;5073245;28;19919;-75
2022/09/28 13:26:28;;;;;;;;;;;11.70;99.90;;;;;;5072176;28;20392;-75
2022/09/28 13:28:59;;;;;;;;;;;11.70;99.90;;;;;;5072385;28;20281;-75
2022/09/28 13:31:29;;;;;;;;;;;11.80;99.90;;;;;;5072291;28;19912;-75
2022/09/28 13:33:56;;;;;;;;;;;11.90;99.90;;;;;;5072890;28;19913;-76
2022/09/28 13:36:25;;;;;;;;;;;11.90;99.90;;;;;;5072676;28;19909;-76
2022/09/28 13:38:51;;;;;;;;;;;12.00;99.90;;;;;;5072302;28;19916;-76
2022/09/28 13:41:36;;;;;;;;;;;12.10;99.90;;;;;;5072328;28;19962;-75
2022/09/28 13:44:20;;;;;;;;;;;12.00;99.90;;;;;;5072673;28;20265;-75
2022/09/28 13:46:48;;;;;;;;;;;12.20;99.90;;;;;;5070569;28;19908;-75
2022/09/28 13:49:21;;;;;;;;;;;12.40;99.90;;;;;;5072576;28;19908;-76
2022/09/28 13:51:47;;;;;;;;;;;12.70;99.90;;;;;;5071527;28;20103;-76
2022/09/28 13:54:31;;;;;;;;;;;12.90;99.90;;;;;;5072077;28;20369;-75
2022/09/28 13:57:12;;;;;;;;;;;13.10;99.90;;;;;;5072066;28;19909;-76
2022/09/28 13:59:57;;;;;;;;;;;13.20;99.90;;;;;;5075312;28;19908;-75
2022/09/28 14:02:44;;;;;;;;;;;13.20;99.90;;;;;;5075698;28;19909;-82
2022/09/28 14:05:23;;;;;;;;;;;12.80;99.90;;;;;;5075577;28;19913;-82
2022/09/28 14:07:49;;;;;;;;;;;12.40;99.90;;;;;;5074216;28;19916;-80
2022/09/28 14:10:23;;;;;;;;;;;12.10;99.90;;;;;;5075586;28;20365;-80
2022/09/28 14:12:50;;;;;;;;;;;12.00;99.90;;;;;;5075290;28;19982;-79
2022/09/28 14:15:27;;;;;;;;;;;11.80;99.90;;;;;;5076272;28;19909;-80
2022/09/28 14:17:53;;;;;;;;;;;11.80;99.90;;;;;;5076011;28;19908;-78
2022/09/28 14:20:21;;;;;;;;;;;11.80;99.90;;;;;;5075627;28;19970;-76
2022/09/28 14:23:06;;;;;;;;;;;11.80;99.90;;;;;;5074074;28;20277;-76
2022/09/28 14:25:45;;;;;;;;;;;11.80;99.90;;;;;;5074812;28;19916;-75
2022/09/28 14:28:23;;;;;;;;;;;11.70;99.90;;;;;;5075372;28;19909;-75
2022/09/28 14:30:51;;;;;;;;;;;11.70;99.90;;;;;;5075255;28;20310;-75
2022/09/28 14:33:23;;;;;;;;;;;11.80;99.90;;;;;;5075421;28;19968;-75
2022/09/28 14:35:55;;;;;;;;;;;11.80;99.90;;;;;;5075014;28;20312;-75
2022/09/28 14:41:38;;;;;;;;;;;11.90;99.90;;;;;;5075115;28;19918;-76
2022/09/28 14:44:04;;;;;;;;;;;12.00;99.90;;;;;;5075261;28;19918;-76
2022/09/28 14:46:34;;;;;;;;;;;12.10;99.90;;;;;;5074871;28;19959;-76
2022/09/28 14:49:02;;;;;;;;;;;12.20;99.90;;;;;;5075267;28;19908;-76
2022/09/28 14:51:34;;;;;;;;;;;12.30;99.90;;;;;;5074753;28;19921;-75